Racecast

Bailey Mehki

Temperance Bedford (MI) · 12 · SECMI D1MONROE · Compare head to head

Athlete rating 112.1 2016 XC season
Best race 120.5 XC
Races 70
Seasons 4 2014 — 2017

RankedNation #49472·MI #4314·MI D1 #2480·SEC #213·Team #110 ?

Cross Country

2016 XC 110.0

Temperance Bedford (MI) · Grade 12

Date Meet Event Result Place Rating Difficulty PR/SR Flags
2016-10-29 Lake Erie Metro Park OFFICIAL 5000m 24:10.2 43rd · 6th on team 113.6 +0.055 CSR RSR
2016-10-20 Hudson Mills Metropark - OFFICIAL 5000m 24:53.9 81st · 11th on team 107.7 +0.036 CSR
2016-09-10 Hedges Boyer Park 5000m 22:33.7 173rd · 4th on team 111.6 -0.036 ★CR SR CSR RSR
2016-08-27 Boy Scout Camp Lakota 5000m 23:15.7 35th · 6th on team 111.1 -0.003 SR CSR RSR
2016-08-25 Heritage Park (Adrian) OFFICIAL 5000m 26:41.1 56th · 7th on team 105.7 +0.084 SR CSR RSR

2015 XC 116.5

Temperance Bedford (MI) · Grade 11

Date Meet Event Result Place Rating Difficulty PR/SR Flags
2015-10-31 Lake Erie Metro Park OFFICIAL 5000m 22:34.4 27th · 2nd on team 120.5 +0.055 ★CR ★R CSR RSR
2015-10-22 Hudson Mills Metropark - OFFICIAL 5000m 22:29.2 30th · 3rd on team 119.1 +0.036 ★CR R CSR RSR
2015-10-17 Hudson Mills Metropark - OFFICIAL 5000m 22:40.3 72nd · 6th on team 117.9 +0.036 CR R CSR RSR
2015-10-03 Pearson's Metro Park 5000m 22:22.9 8th · 8th on team 113.0 -0.022 ★PR ★CR SR CSR
2015-09-29 Indian Creek OFFICIAL 5000m 22:49 43rd · 6th on team 117.7 +0.039 ★CR R SR CSR RSR
2015-09-10 Munson Park 5000m 23:26.1 64th · 6th on team 116.6 +0.054 ★CR CSR RSR
2015-08-29 Boy Scout Camp Lakota 5000m 23:00.89 39th · 6th on team 111.3 -0.003 ★CR SR CSR
2015-08-27 Heritage Park (Adrian) OFFICIAL 5000m 23:47.6 32nd · 6th on team 115.6 +0.084 ★CR SR CSR RSR

2014 XC 109.6

Temperance Bedford (MI) · Grade 10

Date Meet Event Result Place Rating Difficulty PR/SR Flags
2014-10-25 Lake Erie Metro Park OFFICIAL 5000m 25:03.4 65th · 8th on team 109.5 +0.055 CR CSR
2014-10-04 Portage West MS 5000m 22:48 58th · 4th on team 117.5 +0.038 PR ★CR R SR CSR RSR
2014-09-23 Huron Meadows Metropark OFFICIAL 5000m 24:28.9 45th · 7th on team 112.4 +0.052 PR ★CR R SR CSR RSR
2014-09-06 Hedges Boyer Park 5000m 25:01.8 166th · 5th on team 99.1 -0.036 PR CR R SR CSR RSR

Track & Field

2017 TF

Temperance Bedford (MI) · Grade 12

Date Meet Event Result Place Rating Difficulty PR/SR Flags
2017-05-19 MHSAA LP Regional 03-1 @ Saline 400m 1:01.15 5th · 1st on team -0.042
2017-04-28 Nancy Erme Relays 200m 27.65 2nd · 1st on team -0.040
2017-04-28 Nancy Erme Relays 400m 1:00.32 1st · 1st on team -0.040 ★PR SR
2017-04-28 Nancy Erme Relays 100m 13.65 5th · 1st on team -0.040
2017-04-25 SEC Red: Bedford @ Skyline 200m 26.73 2nd · 1st on team -0.033 ★PR SR
2017-04-25 SEC Red: Bedford @ Skyline 100m 13.18 2nd · 1st on team -0.033 ★PR SR
2017-04-25 SEC Red: Bedford @ Skyline 400m 1:01.08 1st · 1st on team -0.033 PR SR
2017-04-13 Springfield Invitational lj 13-01.75 -0.029
2017-04-13 Springfield Invitational 400m 1:03.77 4th · 1st on team -0.029
2017-04-13 Springfield Invitational 200m 27.15 3rd · 1st on team -0.029 SR
2017-04-08 Whitmer Golden W Invitational lj 15-00.00 -0.040
2017-04-08 Whitmer Golden W Invitational 400m 1:01.28 1st · 1st on team -0.040 PR SR
2017-03-28 SEC Red: Bedford @ Pioneer lj 15-03.00 -0.028
2017-03-28 SEC Red: Bedford @ Pioneer 200m 28.75 2nd · 1st on team -0.028 SR
2017-03-28 SEC Red: Bedford @ Pioneer 400m 1:03.73 2nd · 1st on team -0.028 SR

2016 TF

Temperance Bedford (MI) · Grade 11

Date Meet Event Result Place Rating Difficulty PR/SR Flags
2016-05-20 MHSAA LP Regional 03-1 @ Saline 400m 1:01.4 6th · 1st on team -0.042 PR SR
2016-05-20 MHSAA LP Regional 03-1 @ Saline 200m 27.42 18th · 1st on team -0.042
2016-05-13 SEC Red Division Finals 400m 1:01.99 5th · 1st on team -0.033
2016-05-13 SEC Red Division Finals 200m 27 8th · 1st on team -0.033
2016-05-06 Clay Eagle Invitational 400m 1:03.77 1st · 1st on team -0.039
2016-05-03 SEC Tri: Huron/Skyline @ Bedford 400m 1:01.44 3rd · 1st on team -0.033 PR SR
2016-05-03 SEC Tri: Huron/Skyline @ Bedford 200m 27.57 4th · 1st on team -0.033
2016-04-26 Bedford @ Monroe 100m 13.44 2nd · 1st on team -0.032 PR SR
2016-04-26 Bedford @ Monroe 400m 1:01.64 1st · 1st on team -0.032 PR SR
2016-04-23 Whitmore Lake HS Invite 200m 26.99 2nd · 2nd on team -0.029 PR SR
2016-04-23 Whitmore Lake HS Invite 200m 26.98 1st · 1st on team -0.029 PR SR
2016-04-23 Whitmore Lake HS Invite 400m 1:02.56 1st · 1st on team -0.029
2016-04-19 Saline @ Bedford 400m 1:03.08 2nd · 1st on team -0.033
2016-04-19 Saline @ Bedford 100m 13.71 3rd · 2nd on team -0.033
2016-04-14 Springfield Invitational 400m 1:02.43 2nd · 1st on team -0.029 PR SR
2016-04-12 SEC: Bedford @ Pioneer 100m 13.64 3rd · 2nd on team -0.028 PR SR
2016-04-12 SEC: Bedford @ Pioneer 200m 28.56 4th · 2nd on team -0.028 SR
2016-04-12 SEC: Bedford @ Pioneer 400m 1:02.81 2nd · 1st on team -0.028 PR SR

2015 TF

Temperance Bedford (MI) · Grade 10

Date Meet Event Result Place Rating Difficulty PR/SR Flags
2015-05-15 MHSAA LP Regional 03-1 @ Saline 100m 13.71 40th · 1st on team -0.042 PR SR
2015-05-12 SEC: Bedford @ Huron 100m 14.34 2nd · 1st on team -0.034
2015-05-07 SEC: Red Division Finals 100m 13.83 9th · 1st on team -0.032
2015-05-07 SEC: Red Division Finals 200m 28.23 10th · 3rd on team -0.032 PR SR
2015-04-28 SEC: Skyline @ Bedford 100m 13.74 2nd · 2nd on team -0.033 PR SR
2015-04-28 SEC: Skyline @ Bedford 200m 28.54 3rd · 2nd on team -0.033
2015-04-25 Whitmore Lake HS Invite 200m 29.1 10th · 6th on team -0.029
2015-04-25 Whitmore Lake HS Invite 100m 14.44 10th · 4th on team -0.029
2015-04-25 Whitmore Lake HS Invite 100m 14.25 8th · 3rd on team -0.029
2015-04-25 Whitmore Lake HS Invite 200m 28.44 7th · 5th on team -0.029
2015-04-21 SEC: Bedford @ Pioneer 200m 28.63 5th · 3rd on team -0.028
2015-04-21 SEC: Bedford @ Pioneer 100m 14.08 5th · 1st on team -0.028 PR SR
2015-04-16 Springfield Invitational 200m 28.29 6th · 1st on team -0.029 PR SR

2014 TF

Temperance Bedford (MI) · Grade 9

Date Meet Event Result Place Rating Difficulty PR/SR Flags
2014-05-06 Saline Quad lj 10-07.00 -0.042
2014-05-06 Saline Quad 200m 30.09 6th · 2nd on team -0.042 PR SR
2014-05-06 Saline Quad 100m 14.85 15th · 4th on team -0.042 PR SR
2014-04-29 SEC Dual:Bedford @ Skyline lj 10-09.00 -0.033
2014-04-29 SEC Dual:Bedford @ Skyline hj NH -0.033
2014-04-29 SEC Dual:Bedford @ Skyline 200m 30.4 4th · 1st on team -0.033 PR SR
2014-04-29 SEC Dual:Bedford @ Skyline 100m 14.87 5th · 2nd on team -0.033 PR SR